Time;durP1;ratioP1;P1;durP2;ratioP2;P2;SDS_P1;SDS_P2;PMS_P1;PMS_P2;Temp;Humidity;BMP_temperature;BMP_pressure;BME280_temperature;BME280_humidity;BME280_pressure;Samples;Min_cycle;Max_cycle;Signal;HPM_P1;HPM_P2
2021/04/07 00:01:24;;;;;;;1.1;0.6;;;;;;;0.23;78.25293;931.3043;;;;
2021/04/07 00:03:50;;;;;;;1;0.8;;;;;;;0.32;78.28027;931.283;;;;
2021/04/07 00:06:15;;;;;;;0.6;0.5;;;;;;;0.01;79.60352;931.2966;;;;
2021/04/07 00:08:46;;;;;;;0.7;0.7;;;;;;;0.1;80.19043;931.3181;;;;
2021/04/07 00:11:06;;;;;;;1;0.9;;;;;;;0.12;80.23828;931.3024;;;;
2021/04/07 00:13:37;;;;;;;0.4;0.4;;;;;;;0.15;79.68652;931.3536;;;;
2021/04/07 00:16:15;;;;;;;0.5;0.5;;;;;;;0.02;80.2959;931.3689;;;;
2021/04/07 00:18:41;;;;;;;0.6;0.6;;;;;;;-0.25;81.04785;931.4013;;;;
2021/04/07 00:21:06;;;;;;;0.6;0.6;;;;;;;-0.2;80.92383;931.3622;;;;
2021/04/07 00:23:37;;;;;;;0.6;0.6;;;;;;;-0.02;80.625;931.4175;;;;
2021/04/07 00:26:05;;;;;;;0.6;0.6;;;;;;;0.11;80.37012;931.3521;;;;
2021/04/07 00:28:30;;;;;;;0.6;0.6;;;;;;;-0.11;81.10645;931.375;;;;
2021/04/07 00:30:55;;;;;;;1;0.8;;;;;;;0.01;80.93066;931.4322;;;;
2021/04/07 00:33:20;;;;;;;6.2;0.8;;;;;;;-0.39;82.09961;931.4352;;;;
2021/04/07 00:35:46;;;;;;;0.5;0.5;;;;;;;-0.14;82.05957;931.3878;;;;
2021/04/07 00:38:11;;;;;;;1.1;0.7;;;;;;;-0.14;81.83691;931.377;;;;
2021/04/07 00:40:38;;;;;;;0.5;0.5;;;;;;;-0.25;82.63965;931.3731;;;;
2021/04/07 00:43:06;;;;;;;0.4;0.4;;;;;;;-0.19;82.37207;931.2999;;;;
2021/04/07 00:45:34;;;;;;;0.6;0.6;;;;;;;-0.04;81.96777;931.3236;;;;
2021/04/07 00:48:02;;;;;;;0.8;0.7;;;;;;;0.15;81.20215;931.2753;;;;
2021/04/07 00:50:26;;;;;;;0.7;0.7;;;;;;;0.21;80.43359;931.1736;;;;
2021/04/07 00:52:53;;;;;;;6.3;0.6;;;;;;;0.03;80.29883;931.2834;;;;
2021/04/07 00:55:19;;;;;;;0.7;0.7;;;;;;;-0.02;80.80078;931.2905;;;;
2021/04/07 00:57:44;;;;;;;1.9;0.9;;;;;;;0.07;80.60645;931.2667;;;;
2021/04/07 01:00:10;;;;;;;0.3;0.3;;;;;;;0.04;80.75781;931.3;;;;
2021/04/07 01:02:36;;;;;;;1;0.8;;;;;;;0.15;79.99805;931.2957;;;;
2021/04/07 01:05:01;;;;;;;0.6;0.6;;;;;;;0.05;80.12402;931.2457;;;;
2021/04/07 01:07:28;;;;;;;3.3;1.2;;;;;;;0.17;79.54492;931.2305;;;;
2021/04/07 01:09:53;;;;;;;0.8;0.8;;;;;;;0.19;79.30273;931.2147;;;;
2021/04/07 01:12:19;;;;;;;0.8;0.7;;;;;;;-0.17;80.2168;931.2084;;;;
2021/04/07 01:14:47;;;;;;;0.5;0.5;;;;;;;-0.33;81.31055;931.1817;;;;
2021/04/07 01:17:18;;;;;;;0.5;0.5;;;;;;;-0.18;81.61816;931.2378;;;;
2021/04/07 01:19:43;;;;;;;0.4;0.4;;;;;;;-0.06;81.46094;931.2625;;;;
2021/04/07 01:22:12;;;;;;;0.5;0.5;;;;;;;-0.01;81.07227;931.2286;;;;
2021/04/07 01:24:37;;;;;;;0.5;0.5;;;;;;;0.04;80.47949;931.246;;;;
2021/04/07 01:27:08;;;;;;;0.4;0.4;;;;;;;0.03;80.09863;931.2903;;;;
2021/04/07 01:29:38;;;;;;;0.5;0.5;;;;;;;0.09;79.30664;931.291;;;;
2021/04/07 01:32:03;;;;;;;4.9;0.4;;;;;;;0;79.95996;931.2901;;;;
2021/04/07 01:34:32;;;;;;;0.4;0.4;;;;;;;-0.12;80.95996;931.2766;;;;
2021/04/07 01:36:57;;;;;;;0.6;0.5;;;;;;;0.02;80.43066;931.3753;;;;
2021/04/07 01:39:24;;;;;;;0.6;0.6;;;;;;;0.18;80.12793;931.3844;;;;
2021/04/07 01:41:49;;;;;;;4;0.9;;;;;;;-0.06;79.625;931.3597;;;;
2021/04/07 01:44:17;;;;;;;0.8;0.5;;;;;;;-0.22;79.61621;931.3289;;;;
2021/04/07 01:46:42;;;;;;;0.7;0.7;;;;;;;-0.22;80.16406;931.3798;;;;
2021/04/07 01:49:09;;;;;;;0.7;0.7;;;;;;;-0.22;80.48438;931.425;;;;
2021/04/07 01:51:35;;;;;;;1.6;0.8;;;;;;;-0.18;80.7832;931.4083;;;;
2021/04/07 01:54:00;;;;;;;0.7;0.7;;;;;;;0.02;80.57422;931.5003;;;;
2021/04/07 01:56:27;;;;;;;0.6;0.6;;;;;;;0.04;80.72461;931.4879;;;;
2021/04/07 01:58:52;;;;;;;0.9;0.7;;;;;;;-0.03;81.3916;931.4046;;;;
2021/04/07 02:01:28;;;;;;;1;0.8;;;;;;;-0.03;80.64355;931.4154;;;;
2021/04/07 02:03:53;;;;;;;0.5;0.5;;;;;;;-0.24;80.87109;931.4331;;;;
2021/04/07 02:06:18;;;;;;;0.7;0.7;;;;;;;-0.33;81.24512;931.3883;;;;
2021/04/07 02:08:46;;;;;;;0.5;0.5;;;;;;;-0.44;81.56543;931.4467;;;;
2021/04/07 02:11:11;;;;;;;0.6;0.6;;;;;;;-0.47;81.94043;931.4897;;;;
2021/04/07 02:13:38;;;;;;;0.7;0.7;;;;;;;-0.27;81.55566;931.4749;;;;
2021/04/07 02:16:23;;;;;;;0.5;0.5;;;;;;;-0.21;80.97656;931.5108;;;;
2021/04/07 02:18:50;;;;;;;0.6;0.6;;;;;;;-0.08;80.98926;931.4698;;;;
2021/04/07 02:21:16;;;;;;;1.1;0.7;;;;;;;-0.03;79.78711;931.4703;;;;
2021/04/07 02:23:43;;;;;;;0.9;0.7;;;;;;;-0.2;79.58789;931.4717;;;;
2021/04/07 02:26:13;;;;;;;0.5;0.5;;;;;;;-0.29;79.58008;931.4788;;;;
2021/04/07 02:28:38;;;;;;;2.1;0.6;;;;;;;-0.13;79.58887;931.493;;;;
2021/04/07 02:31:05;;;;;;;1.1;0.6;;;;;;;-0.04;79.39453;931.44;;;;
2021/04/07 02:33:33;;;;;;;0.5;0.5;;;;;;;-0.09;78.68262;931.553;;;;
2021/04/07 02:35:59;;;;;;;0.8;0.8;;;;;;;-0.33;77.46973;931.5361;;;;
2021/04/07 02:38:30;;;;;;;0.5;0.5;;;;;;;-0.27;77.95996;931.6039;;;;
2021/04/07 02:40:59;;;;;;;0.6;0.6;;;;;;;-0.28;78.4248;931.5144;;;;
2021/04/07 02:43:28;;;;;;;1.1;0.7;;;;;;;-0.27;78.02734;931.5781;;;;
2021/04/07 02:45:53;;;;;;;0.4;0.4;;;;;;;-0.15;78.04883;931.677;;;;
2021/04/07 02:48:20;;;;;;;0.6;0.6;;;;;;;0.01;77.42188;931.6442;;;;
2021/04/07 02:50:45;;;;;;;1.3;0.7;;;;;;;0.04;77.02539;931.6164;;;;
2021/04/07 02:53:13;;;;;;;0.9;0.7;;;;;;;-0.03;77.0127;931.6305;;;;
2021/04/07 02:55:38;;;;;;;0.6;0.6;;;;;;;-0.12;77.66406;931.6091;;;;
2021/04/07 02:58:04;;;;;;;0.8;0.6;;;;;;;-0.45;78.89453;931.6005;;;;
2021/04/07 03:00:29;;;;;;;0.7;0.7;;;;;;;-0.39;78.65039;931.5705;;;;
2021/04/07 03:02:55;;;;;;;0.9;0.7;;;;;;;-0.14;77.73828;931.6325;;;;
2021/04/07 03:05:20;;;;;;;0.9;0.5;;;;;;;-0.01;77.46289;931.6417;;;;
2021/04/07 03:07:47;;;;;;;0.6;0.6;;;;;;;0.06;77.24023;931.7147;;;;
2021/04/07 03:10:14;;;;;;;0.4;0.4;;;;;;;0.05;76.93848;931.6487;;;;
2021/04/07 03:12:42;;;;;;;0.5;0.5;;;;;;;-0.14;78.37305;931.6633;;;;
2021/04/07 03:15:09;;;;;;;1.8;0.9;;;;;;;-0.06;78.1084;931.685;;;;
2021/04/07 03:17:34;;;;;;;3.3;1.1;;;;;;;0.01;77.44238;931.5492;;;;
2021/04/07 03:20:00;;;;;;;0.7;0.6;;;;;;;-0.04;76.73242;931.6647;;;;
2021/04/07 03:22:25;;;;;;;1.1;1;;;;;;;0.05;77.32813;931.6472;;;;
2021/04/07 03:24:52;;;;;;;1.3;1.2;;;;;;;0.03;78.39453;931.6831;;;;
2021/04/07 03:27:17;;;;;;;1.1;1;;;;;;;0.12;77.53027;931.7416;;;;
2021/04/07 03:29:47;;;;;;;1.1;0.8;;;;;;;0.2;76.50781;931.7583;;;;
2021/04/07 03:32:12;;;;;;;7.4;5.2;;;;;;;0.23;76.66797;931.8653;;;;
2021/04/07 03:34:41;;;;;;;1.1;1;;;;;;;0.09;77.18945;931.8466;;;;
2021/04/07 03:37:06;;;;;;;0.9;0.7;;;;;;;0.15;76.87793;931.7872;;;;
2021/04/07 03:39:35;;;;;;;0.6;0.6;;;;;;;0.24;76.28125;931.8189;;;;
2021/04/07 03:42:00;;;;;;;1;0.6;;;;;;;0.19;76.76367;931.8239;;;;
2021/04/07 03:44:25;;;;;;;0.5;0.4;;;;;;;0;78.60059;931.8741;;;;
2021/04/07 03:46:51;;;;;;;0.8;0.7;;;;;;;-0.05;78.94727;931.8678;;;;
2021/04/07 03:49:17;;;;;;;0.4;0.4;;;;;;;0.03;78.1582;931.9467;;;;
2021/04/07 03:51:42;;;;;;;0.8;0.7;;;;;;;0.07;78.13379;931.8904;;;;
2021/04/07 03:54:09;;;;;;;0.5;0.5;;;;;;;0.12;77.85254;931.9314;;;;
2021/04/07 03:56:34;;;;;;;0.6;0.6;;;;;;;0.04;77.57129;931.9653;;;;
2021/04/07 03:59:04;;;;;;;0.6;0.6;;;;;;;-0.08;77.6709;931.9659;;;;
2021/04/07 04:02:39;;;;;;;1.3;1;;;;;;;0.07;77.32031;931.9217;;;;
2021/04/07 04:05:04;;;;;;;0.7;0.7;;;;;;;0.11;77.13867;931.7975;;;;
2021/04/07 04:07:29;;;;;;;0.7;0.7;;;;;;;0.2;76.79688;931.8725;;;;
2021/04/07 04:09:55;;;;;;;0.9;0.9;;;;;;;0.16;76.31152;931.9182;;;;
2021/04/07 04:12:20;;;;;;;1;0.6;;;;;;;0.08;75.28418;931.9842;;;;
2021/04/07 04:14:50;;;;;;;0.6;0.6;;;;;;;0.16;74.83105;932.0223;;;;
2021/04/07 04:17:24;;;;;;;1.8;1.2;;;;;;;-0.08;76.94629;931.9377;;;;
2021/04/07 04:19:49;;;;;;;0.8;0.8;;;;;;;-0.05;77.49902;932.0781;;;;
2021/04/07 04:22:18;;;;;;;0.6;0.6;;;;;;;0.06;76.67188;932.1022;;;;
2021/04/07 04:24:43;;;;;;;0.5;0.5;;;;;;;0.03;75.8418;932.0375;;;;
2021/04/07 04:27:08;;;;;;;1.2;0.9;;;;;;;-0.09;76.83398;932.2025;;;;
2021/04/07 04:29:36;;;;;;;3.1;0.5;;;;;;;-0.14;76.80371;932.1021;;;;
2021/04/07 04:32:02;;;;;;;0.6;0.6;;;;;;;-0.15;77.44727;932.2276;;;;
2021/04/07 04:34:27;;;;;;;1;0.9;;;;;;;-0.02;77.23828;932.2883;;;;
2021/04/07 04:36:56;;;;;;;0.7;0.7;;;;;;;0.15;76.68848;932.3443;;;;
2021/04/07 04:39:21;;;;;;;1.1;1;;;;;;;0.22;76.51074;932.3738;;;;
2021/04/07 04:41:49;;;;;;;0.8;0.7;;;;;;;0.23;76.05664;932.4175;;;;
2021/04/07 04:44:14;;;;;;;1.7;0.6;;;;;;;0.24;76.87207;932.4281;;;;
2021/04/07 04:46:42;;;;;;;0.7;0.7;;;;;;;0.31;77.13086;932.5035;;;;
2021/04/07 04:49:07;;;;;;;0.6;0.6;;;;;;;0.24;76.83887;932.4924;;;;
2021/04/07 04:51:34;;;;;;;0.8;0.8;;;;;;;0.27;77.5791;932.5105;;;;
2021/04/07 04:53:59;;;;;;;0.9;0.8;;;;;;;-0.04;77.15527;932.5831;;;;
2021/04/07 04:56:27;;;;;;;0.7;0.7;;;;;;;-0.33;78.33984;932.6443;;;;
2021/04/07 04:58:52;;;;;;;1.4;0.7;;;;;;;-0.42;79.14453;932.7067;;;;
2021/04/07 05:01:20;;;;;;;0.9;0.7;;;;;;;-0.48;79.87988;932.7138;;;;
2021/04/07 05:03:45;;;;;;;0.7;0.6;;;;;;;-0.51;80.13086;932.7001;;;;
2021/04/07 05:06:12;;;;;;;1;0.7;;;;;;;-0.56;80.79785;932.6649;;;;
2021/04/07 05:08:38;;;;;;;1.9;0.9;;;;;;;-0.48;81.09277;932.7239;;;;
2021/04/07 05:11:07;;;;;;;4.2;0.8;;;;;;;-0.64;80.77246;932.7327;;;;
2021/04/07 05:13:32;;;;;;;1.7;1.3;;;;;;;-0.42;81.2373;932.8334;;;;
2021/04/07 05:16:01;;;;;;;1.2;1;;;;;;;-0.44;80.74219;932.8605;;;;
2021/04/07 05:18:34;;;;;;;0.8;0.8;;;;;;;-0.28;81.04199;932.9177;;;;
2021/04/07 05:21:08;;;;;;;1.8;0.8;;;;;;;-0.19;80.72559;932.9436;;;;
2021/04/07 05:23:33;;;;;;;1;0.9;;;;;;;-0.22;79.38281;932.9138;;;;
2021/04/07 05:26:05;;;;;;;2.1;1.4;;;;;;;-0.15;79.74121;933.0133;;;;
2021/04/07 05:28:36;;;;;;;42.8;22.2;;;;;;;-0.06;79.1123;932.9888;;;;
2021/04/07 05:31:03;;;;;;;15.2;9.2;;;;;;;0.03;79.48633;933.1152;;;;
2021/04/07 05:33:34;;;;;;;3.4;1.6;;;;;;;-0.17;79.71582;933.1125;;;;
2021/04/07 05:35:59;;;;;;;1;0.9;;;;;;;-0.21;80.06348;933.2498;;;;
2021/04/07 05:38:24;;;;;;;0.5;0.5;;;;;;;-0.06;80.31543;933.3884;;;;
2021/04/07 05:40:49;;;;;;;1.4;1;;;;;;;0.03;80.03223;933.4378;;;;
2021/04/07 05:43:14;;;;;;;1.5;1;;;;;;;0.14;79.38379;933.4032;;;;
2021/04/07 05:45:46;;;;;;;0.4;0.4;;;;;;;0.01;79.56055;933.5215;;;;
2021/04/07 05:48:13;;;;;;;1.3;1;;;;;;;0;79.72559;933.6345;;;;
2021/04/07 05:50:39;;;;;;;1.1;1;;;;;;;-0.13;80.0459;933.6022;;;;
2021/04/07 05:53:04;;;;;;;2.3;1.5;;;;;;;-0.44;81.58984;933.6552;;;;
2021/04/07 05:55:32;;;;;;;3.1;1.3;;;;;;;-0.47;81.2041;933.8454;;;;
2021/04/07 05:57:57;;;;;;;1.5;1.2;;;;;;;-0.32;81.58984;933.8998;;;;
2021/04/07 06:00:22;;;;;;;8;4.6;;;;;;;-0.48;81.71484;933.9451;;;;
2021/04/07 06:02:47;;;;;;;2.6;2;;;;;;;-0.51;81.41797;933.9484;;;;
2021/04/07 06:05:12;;;;;;;1.7;1.3;;;;;;;-0.47;81.66211;933.9341;;;;
2021/04/07 06:07:37;;;;;;;1.1;0.8;;;;;;;-0.45;80.30859;934.0668;;;;
2021/04/07 06:10:03;;;;;;;0.6;0.6;;;;;;;-0.52;79.79395;934.0912;;;;
2021/04/07 06:12:29;;;;;;;1.5;1.3;;;;;;;-0.4;79.04785;934.1409;;;;
2021/04/07 06:14:59;;;;;;;4;1.8;;;;;;;-0.63;79.52832;934.2169;;;;
2021/04/07 06:17:37;;;;;;;1;0.8;;;;;;;-0.68;81.19922;934.2288;;;;
2021/04/07 06:20:14;;;;;;;0.9;0.9;;;;;;;-0.59;81.40234;934.2639;;;;
2021/04/07 06:22:45;;;;;;;0.8;0.8;;;;;;;-0.35;79.30273;934.3045;;;;
2021/04/07 06:25:12;;;;;;;1.2;0.9;;;;;;;-0.26;77.55957;934.2659;;;;
2021/04/07 06:27:37;;;;;;;0.6;0.6;;;;;;;-0.38;77.10352;934.3851;;;;
2021/04/07 06:30:13;;;;;;;0.9;0.6;;;;;;;-0.39;76.21191;934.406;;;;
2021/04/07 06:32:38;;;;;;;1.8;1.2;;;;;;;-0.34;78.00098;934.509;;;;
2021/04/07 06:35:10;;;;;;;0.8;0.7;;;;;;;-0.13;78.09668;934.5193;;;;
2021/04/07 06:37:40;;;;;;;0.5;0.5;;;;;;;0.02;76.30957;934.5823;;;;
2021/04/07 06:40:05;;;;;;;9.9;0.6;;;;;;;0.06;74.75586;934.4861;;;;
2021/04/07 06:42:34;;;;;;;1.1;0.7;;;;;;;-0.13;75.45605;934.6434;;;;
2021/04/07 06:44:59;;;;;;;1;0.9;;;;;;;-0.21;76.87891;934.7197;;;;
2021/04/07 06:47:24;;;;;;;0.6;0.5;;;;;;;-0.17;76.03027;934.8299;;;;
2021/04/07 06:49:51;;;;;;;0.8;0.8;;;;;;;-0.24;76.88574;934.8719;;;;
2021/04/07 06:52:16;;;;;;;2.2;0.9;;;;;;;-0.03;76.12109;934.8734;;;;
2021/04/07 06:54:42;;;;;;;0.5;0.5;;;;;;;-0.06;76.90527;934.9088;;;;
2021/04/07 06:57:08;;;;;;;0.6;0.6;;;;;;;0.17;77.01563;934.9644;;;;
2021/04/07 06:59:35;;;;;;;0.6;0.6;;;;;;;0.25;76.23828;934.9945;;;;
2021/04/07 07:02:00;;;;;;;0.5;0.5;;;;;;;0.17;76.00098;934.9441;;;;
2021/04/07 07:04:28;;;;;;;0.7;0.7;;;;;;;0.4;75.32813;934.9828;;;;
2021/04/07 07:06:53;;;;;;;2;0.9;;;;;;;0.48;75.16406;935.0012;;;;
2021/04/07 07:09:19;;;;;;;3;0.7;;;;;;;0.8;74.18457;935.0224;;;;
2021/04/07 07:11:44;;;;;;;0.7;0.7;;;;;;;0.8;74.44043;935.0074;;;;
2021/04/07 07:14:15;;;;;;;0.9;0.6;;;;;;;0.37;74.95508;935.153;;;;
2021/04/07 07:16:57;;;;;;;0.7;0.4;;;;;;;0.38;76.0166;935.1816;;;;
2021/04/07 07:19:27;;;;;;;0.6;0.6;;;;;;;0.71;75.00684;935.2109;;;;
2021/04/07 07:21:52;;;;;;;1.2;0.7;;;;;;;0.91;73.72266;935.1981;;;;
2021/04/07 07:24:17;;;;;;;5.3;0.4;;;;;;;0.91;71.81445;935.2944;;;;
2021/04/07 07:26:47;;;;;;;1.4;0.9;;;;;;;1.17;71.27734;935.3459;;;;
2021/04/07 07:29:13;;;;;;;0.8;0.7;;;;;;;1;71.0498;935.3439;;;;
2021/04/07 07:31:40;;;;;;;1.2;0.9;;;;;;;1.12;70.94434;935.4503;;;;
2021/04/07 07:34:06;;;;;;;0.5;0.5;;;;;;;1.09;71.4209;935.5214;;;;
2021/04/07 07:36:30;;;;;;;1.3;0.9;;;;;;;1.08;71.34082;935.5242;;;;
2021/04/07 07:38:56;;;;;;;3.1;1.4;;;;;;;1.01;71.82031;935.6727;;;;
2021/04/07 07:41:21;;;;;;;36.5;17.6;;;;;;;0.39;72.00391;935.7598;;;;
2021/04/07 07:43:46;;;;;;;1.6;1;;;;;;;0.5;74.20996;935.8283;;;;
2021/04/07 07:46:12;;;;;;;1.4;1;;;;;;;0.6;73.11133;935.8747;;;;
2021/04/07 07:48:40;;;;;;;1.5;1.2;;;;;;;0.41;76.15625;935.9514;;;;
2021/04/07 07:51:05;;;;;;;1.3;1.2;;;;;;;0.54;75.6123;935.9158;;;;
2021/04/07 07:53:33;;;;;;;3.4;2;;;;;;;0.75;73.38379;935.9105;;;;
2021/04/07 07:55:59;;;;;;;5.1;0.7;;;;;;;0.6;72.85547;936.0911;;;;
2021/04/07 07:58:25;;;;;;;1.8;0.9;;;;;;;0.64;72.79492;936.0054;;;;
2021/04/07 08:00:50;;;;;;;2.4;1.3;;;;;;;0.75;71.91113;936.0502;;;;
2021/04/07 08:03:15;;;;;;;0.3;0.3;;;;;;;0.84;71.56934;936.1929;;;;
2021/04/07 08:05:43;;;;;;;0.6;0.6;;;;;;;1.02;71.35352;936.2485;;;;
2021/04/07 08:08:08;;;;;;;0.2;0.2;;;;;;;0.91;66.64551;936.2053;;;;
2021/04/07 08:10:39;;;;;;;0.4;0.4;;;;;;;0.76;67.31348;936.1923;;;;
2021/04/07 08:13:10;;;;;;;0.5;0.5;;;;;;;1.39;65.74902;936.3373;;;;
2021/04/07 08:15:37;;;;;;;0.7;0.4;;;;;;;1.75;63.43457;936.3557;;;;
2021/04/07 08:18:05;;;;;;;0.3;0.3;;;;;;;1.86;58.66113;936.4258;;;;
2021/04/07 08:20:30;;;;;;;0.8;0.5;;;;;;;1.58;60.41211;936.3965;;;;
2021/04/07 08:22:55;;;;;;;3.6;1.4;;;;;;;1.49;60.56738;936.4281;;;;
2021/04/07 08:25:31;;;;;;;0.9;0.6;;;;;;;1.13;61.24121;936.4084;;;;
2021/04/07 08:28:01;;;;;;;0.8;0.7;;;;;;;1.7;60.68652;936.3967;;;;
2021/04/07 08:30:28;;;;;;;1.4;0.5;;;;;;;2.27;58.72949;936.4813;;;;
2021/04/07 08:32:51;;;;;;;0.7;0.6;;;;;;;2.84;58.34863;936.3794;;;;
2021/04/07 08:35:19;;;;;;;0.4;0.4;;;;;;;2.98;57.42578;936.514;;;;
2021/04/07 08:37:44;;;;;;;0.3;0.3;;;;;;;2.9;56.30469;936.5294;;;;
2021/04/07 08:40:13;;;;;;;0.4;0.4;;;;;;;2.46;55.70801;936.6301;;;;
2021/04/07 08:42:38;;;;;;;0.3;0.3;;;;;;;1.92;57.5166;936.6567;;;;
2021/04/07 08:45:03;;;;;;;0.9;0.5;;;;;;;1.61;59.16504;936.7371;;;;
2021/04/07 08:47:30;;;;;;;0.4;0.4;;;;;;;1.59;60.36914;936.7466;;;;
2021/04/07 08:49:55;;;;;;;0.9;0.5;;;;;;;1.73;60.76855;936.8013;;;;
2021/04/07 08:52:24;;;;;;;0.7;0.4;;;;;;;2.09;59.36523;936.8521;;;;
2021/04/07 08:54:49;;;;;;;0.3;0.3;;;;;;;2.47;58.99219;936.9174;;;;
2021/04/07 08:57:14;;;;;;;0.4;0.3;;;;;;;2.63;57.65723;936.8823;;;;
2021/04/07 08:59:39;;;;;;;0.9;0.6;;;;;;;2.62;55.06738;936.8389;;;;
2021/04/07 09:02:05;;;;;;;0.8;0.5;;;;;;;2.54;54.36328;936.9271;;;;
2021/04/07 09:04:30;;;;;;;0.3;0.3;;;;;;;3.04;55.30273;936.9333;;;;
2021/04/07 09:06:55;;;;;;;2.5;0.6;;;;;;;4.03;55.0498;936.9464;;;;
2021/04/07 09:09:22;;;;;;;0.4;0.4;;;;;;;4.19;53.02051;937.0474;;;;
2021/04/07 09:11:48;;;;;;;0.3;0.3;;;;;;;3.87;52.99316;937.0938;;;;
2021/04/07 09:14:17;;;;;;;1.2;0.4;;;;;;;3.12;53.5166;937.1192;;;;
2021/04/07 09:16:49;;;;;;;0.3;0.3;;;;;;;3.36;55.27539;937.1019;;;;
2021/04/07 09:19:15;;;;;;;0.3;0.3;;;;;;;4.37;51.97363;937.1092;;;;
2021/04/07 09:21:43;;;;;;;0.2;0.2;;;;;;;4.93;49.6875;937.0471;;;;
2021/04/07 09:24:14;;;;;;;0.9;0.6;;;;;;;4.7;50.26855;937.13;;;;
2021/04/07 09:26:41;;;;;;;0.7;0.4;;;;;;;4.51;50.17871;937.1373;;;;
2021/04/07 09:29:04;;;;;;;0.3;0.2;;;;;;;4.78;50.2334;937.1631;;;;
2021/04/07 09:31:33;;;;;;;1.1;0.4;;;;;;;5.24;48.09961;937.1761;;;;
2021/04/07 09:33:59;;;;;;;0.5;0.4;;;;;;;5.21;49.97852;937.2115;;;;
2021/04/07 09:36:28;;;;;;;0.3;0.3;;;;;;;5.9;48.68262;937.1273;;;;
2021/04/07 09:38:53;;;;;;;0.4;0.4;;;;;;;6.58;46.12305;937.1552;;;;
2021/04/07 09:41:26;;;;;;;0.8;0.5;;;;;;;7.33;44.67383;937.2125;;;;
2021/04/07 09:43:58;;;;;;;0.2;0.2;;;;;;;7.48;43.50977;937.2142;;;;
2021/04/07 09:46:25;;;;;;;0.4;0.3;;;;;;;7.32;42.77051;937.2053;;;;
2021/04/07 09:48:48;;;;;;;0.2;0.2;;;;;;;7.24;43.25977;937.1926;;;;
2021/04/07 09:51:13;;;;;;;0.2;0.2;;;;;;;6.91;43.43066;937.3183;;;;
2021/04/07 09:53:38;;;;;;;0.3;0.3;;;;;;;7.04;44.8252;937.337;;;;
2021/04/07 09:56:05;;;;;;;0.4;0.4;;;;;;;5.66;46.89355;937.4469;;;;
2021/04/07 09:58:29;;;;;;;0.3;0.3;;;;;;;4.71;48.58008;937.5497;;;;
2021/04/07 10:01:00;;;;;;;0.3;0.3;;;;;;;3.24;51.71387;937.6108;;;;
2021/04/07 10:03:24;;;;;;;0.5;0.4;;;;;;;2.78;56.29883;937.6606;;;;
2021/04/07 10:05:50;;;;;;;0.7;0.3;;;;;;;2.33;57.05859;937.6385;;;;
2021/04/07 10:08:15;;;;;;;0.4;0.4;;;;;;;2.02;58.02344;937.7327;;;;
2021/04/07 10:10:41;;;;;;;0.2;0.2;;;;;;;2.31;55.55371;937.6525;;;;
2021/04/07 10:13:10;;;;;;;0.3;0.3;;;;;;;2.43;58.97656;937.7433;;;;
2021/04/07 10:15:39;;;;;;;0.6;0.3;;;;;;;3.07;58.6709;937.7154;;;;
2021/04/07 10:18:14;;;;;;;0.3;0.3;;;;;;;3.34;56.27246;937.6316;;;;
2021/04/07 10:20:40;;;;;;;0.2;0.2;;;;;;;3.68;53.49707;937.6542;;;;
2021/04/07 10:23:06;;;;;;;0.4;0.4;;;;;;;4.08;52.14258;937.758;;;;
2021/04/07 10:25:31;;;;;;;0.5;0.5;;;;;;;3.99;54.31152;937.6418;;;;
2021/04/07 10:28:02;;;;;;;0.6;0.6;;;;;;;3.73;52.97559;937.7968;;;;
2021/04/07 10:30:27;;;;;;;0.3;0.3;;;;;;;4.37;52.62793;937.7833;;;;
2021/04/07 10:32:55;;;;;;;0.4;0.4;;;;;;;4.7;52.16113;937.7222;;;;
2021/04/07 10:35:20;;;;;;;0.3;0.3;;;;;;;4.96;52.94727;937.9014;;;;
2021/04/07 10:37:48;;;;;;;1.5;0.5;;;;;;;4.24;53.73633;937.9139;;;;
2021/04/07 10:40:13;;;;;;;0.4;0.4;;;;;;;3.64;52.81738;937.7166;;;;
2021/04/07 10:42:38;;;;;;;0.2;0.2;;;;;;;3.93;54.67578;937.7205;;;;
2021/04/07 10:45:06;;;;;;;0.3;0.3;;;;;;;4.62;53.55859;937.7354;;;;
2021/04/07 10:47:33;;;;;;;0.4;0.4;;;;;;;6.25;49.27637;937.8995;;;;
2021/04/07 10:50:02;;;;;;;0.5;0.3;;;;;;;6.69;47.38086;937.7547;;;;
2021/04/07 10:52:28;;;;;;;0.3;0.3;;;;;;;6.38;47.76465;937.7706;;;;
2021/04/07 10:54:58;;;;;;;0.3;0.3;;;;;;;6.86;45.73438;937.7745;;;;
2021/04/07 10:57:23;;;;;;;0.4;0.4;;;;;;;6.15;47.44531;937.7724;;;;
2021/04/07 10:59:48;;;;;;;1.4;0.6;;;;;;;6.06;48.39551;937.8058;;;;
2021/04/07 11:02:14;;;;;;;8.6;3.7;;;;;;;5.37;50.61816;937.928;;;;
2021/04/07 11:04:39;;;;;;;0.8;0.6;;;;;;;5.01;51.5791;938.0222;;;;
2021/04/07 11:07:07;;;;;;;0.3;0.3;;;;;;;4.43;55.76367;938.1345;;;;
2021/04/07 11:09:33;;;;;;;0.4;0.4;;;;;;;3.94;55.50781;938.2561;;;;
2021/04/07 11:11:55;;;;;;;0.5;0.4;;;;;;;3.76;56.1709;938.1016;;;;
2021/04/07 11:14:22;;;;;;;0.2;0.2;;;;;;;3.62;55.41211;938.2095;;;;
2021/04/07 11:16:51;;;;;;;0.4;0.4;;;;;;;3.66;56.41602;938.1039;;;;
2021/04/07 11:19:20;;;;;;;0.3;0.3;;;;;;;4.02;55.38379;938.0441;;;;
2021/04/07 11:21:45;;;;;;;0.5;0.4;;;;;;;5.51;54.25781;938.106;;;;
2021/04/07 11:24:12;;;;;;;3.4;0.4;;;;;;;6.74;48.78906;938.0436;;;;
2021/04/07 11:26:37;;;;;;;0.2;0.2;;;;;;;7.26;45.99219;938.0276;;;;
2021/04/07 11:29:03;;;;;;;0.3;0.3;;;;;;;7.61;45.93945;937.8921;;;;
2021/04/07 11:31:32;;;;;;;0.3;0.3;;;;;;;7.64;43.75391;937.8339;;;;
2021/04/07 11:33:57;;;;;;;1;0.3;;;;;;;7.73;43.85352;937.9474;;;;
2021/04/07 11:36:40;;;;;;;0.3;0.2;;;;;;;7.41;44.75098;937.868;;;;
2021/04/07 11:38:49;;;;;;;0.5;0.2;;;;;;;7.45;43.71191;937.8403;;;;
2021/04/07 11:43:46;;;;;;;0.5;0.2;;;;;;;7.58;43.39648;937.8531;;;;
2021/04/07 11:46:00;;;;;;;3.8;0.3;;;;;;;7.97;42.11914;937.8438;;;;
2021/04/07 11:48:26;;;;;;;0.5;0.4;;;;;;;8.03;42.63477;937.9949;;;;
2021/04/07 11:50:51;;;;;;;0.4;0.4;;;;;;;7.82;43.19336;938.1183;;;;
2021/04/07 11:53:16;;;;;;;0.3;0.3;;;;;;;5.68;46.87305;938.1898;;;;
2021/04/07 11:55:43;;;;;;;1;0.5;;;;;;;5.63;47.79395;938.0044;;;;
2021/04/07 11:58:10;;;;;;;0.5;0.3;;;;;;;5.87;45.45898;938.2277;;;;
2021/04/07 12:00:35;;;;;;;0.6;0.6;;;;;;;5.23;48.00879;938.2731;;;;
2021/04/07 12:03:04;;;;;;;1.8;0.8;;;;;;;4.84;49.95801;938.3861;;;;
2021/04/07 12:05:31;;;;;;;0.3;0.3;;;;;;;4.75;50.21875;938.2608;;;;
2021/04/07 12:07:56;;;;;;;0.6;0.6;;;;;;;4.22;52.29297;938.226;;;;
2021/04/07 12:10:22;;;;;;;0.2;0.2;;;;;;;4.12;51.85352;938.2633;;;;
2021/04/07 12:12:48;;;;;;;0.4;0.4;;;;;;;4.61;53.10742;938.1942;;;;
2021/04/07 12:15:14;;;;;;;0.4;0.4;;;;;;;6.09;49.86816;938.2183;;;;
2021/04/07 12:17:38;;;;;;;1.2;0.5;;;;;;;5.2;47.31641;938.1558;;;;
2021/04/07 12:20:07;;;;;;;0.4;0.4;;;;;;;5.43;47.17383;938.1322;;;;
2021/04/07 12:22:32;;;;;;;0.2;0.2;;;;;;;4.97;45.37695;938.0644;;;;
2021/04/07 12:24:57;;;;;;;2.2;0.7;;;;;;;4.6;48.87207;938.1951;;;;
2021/04/07 12:27:22;;;;;;;1.2;0.5;;;;;;;4.37;45.13086;938.1119;;;;
2021/04/07 12:29:48;;;;;;;0.4;0.4;;;;;;;4.43;49.01074;938.1386;;;;
2021/04/07 12:32:12;;;;;;;0.8;0.6;;;;;;;4.7;46.49609;938.0345;;;;
2021/04/07 12:34:40;;;;;;;0.5;0.5;;;;;;;4.77;45.77051;938.0894;;;;
2021/04/07 12:37:05;;;;;;;0.9;0.4;;;;;;;4.95;45.83594;938.1298;;;;
2021/04/07 12:39:34;;;;;;;0.2;0.2;;;;;;;4.6;46.6084;938.1564;;;;
2021/04/07 12:42:00;;;;;;;0.2;0.2;;;;;;;4.37;47.73145;938.1638;;;;
2021/04/07 12:44:25;;;;;;;0.2;0.2;;;;;;;4.59;49.58203;938.2186;;;;
2021/04/07 12:46:50;;;;;;;0.4;0.4;;;;;;;4.28;47.54199;938.2194;;;;
2021/04/07 12:49:17;;;;;;;0.2;0.2;;;;;;;4.3;47.65625;938.3223;;;;
2021/04/07 12:51:42;;;;;;;0.3;0.3;;;;;;;3.31;47.05176;938.334;;;;
2021/04/07 12:54:10;;;;;;;1.1;0.7;;;;;;;3.18;49.78711;938.5634;;;;
2021/04/07 12:56:35;;;;;;;1.6;0.8;;;;;;;3.28;54.09766;938.4367;;;;
2021/04/07 12:59:03;;;;;;;0.7;0.6;;;;;;;3.09;55.91504;938.5876;;;;
2021/04/07 13:01:28;;;;;;;0.4;0.4;;;;;;;3.08;57.46191;938.6194;;;;
2021/04/07 13:03:55;;;;;;;0.8;0.6;;;;;;;2.95;58.69824;938.6897;;;;
2021/04/07 13:06:24;;;;;;;0.4;0.4;;;;;;;2.76;60.31055;938.7739;;;;
2021/04/07 13:08:49;;;;;;;0.4;0.4;;;;;;;3.19;59.03711;938.6266;;;;
2021/04/07 13:11:15;;;;;;;0.5;0.5;;;;;;;4.1;57.42969;938.6905;;;;
2021/04/07 13:13:40;;;;;;;1.8;1.2;;;;;;;4.71;57.5918;938.6649;;;;
2021/04/07 13:16:07;;;;;;;0.4;0.3;;;;;;;6.04;52.58594;938.6351;;;;
2021/04/07 13:18:34;;;;;;;0.4;0.4;;;;;;;6.4;51.52051;938.6116;;;;
2021/04/07 13:21:04;;;;;;;0.7;0.6;;;;;;;6.52;50.33691;938.5446;;;;
2021/04/07 13:23:24;;;;;;;1;0.5;;;;;;;6.47;48.38477;938.5575;;;;
2021/04/07 13:25:50;;;;;;;1.6;0.9;;;;;;;5.99;50.92969;938.6344;;;;
2021/04/07 13:28:15;;;;;;;0.5;0.5;;;;;;;6.02;48.25488;938.5547;;;;
2021/04/07 13:30:48;;;;;;;1;0.6;;;;;;;5.95;49.01465;938.5084;;;;
2021/04/07 13:33:12;;;;;;;13.9;6.7;;;;;;;5.94;50.85547;938.5602;;;;
2021/04/07 13:35:38;;;;;;;1.6;0.6;;;;;;;5.45;48.76563;938.5432;;;;
2021/04/07 13:38:05;;;;;;;1.5;0.7;;;;;;;5.95;49.80566;938.4436;;;;
2021/04/07 13:40:33;;;;;;;0.4;0.4;;;;;;;6.27;47.93359;938.5087;;;;
2021/04/07 13:42:54;;;;;;;3.3;1.6;;;;;;;6.05;49.86328;938.5051;;;;
2021/04/07 13:45:15;;;;;;;1.8;1.4;;;;;;;6.16;50.50781;938.4501;;;;
2021/04/07 13:47:44;;;;;;;0.5;0.4;;;;;;;5.8;47.5752;938.3828;;;;
2021/04/07 13:50:05;;;;;;;0.4;0.4;;;;;;;5.79;46.18555;938.4;;;;
2021/04/07 13:52:32;;;;;;;4.9;3.6;;;;;;;5.33;43.83496;938.3304;;;;
2021/04/07 13:55:05;;;;;;;4.9;2.7;;;;;;;5.17;46.6377;938.4297;;;;
2021/04/07 13:57:28;;;;;;;6.8;0.5;;;;;;;4.7;44.69336;938.5149;;;;
2021/04/07 13:59:48;;;;;;;0.6;0.5;;;;;;;4.65;46.37793;938.4786;;;;
2021/04/07 14:02:19;;;;;;;0.7;0.7;;;;;;;4.23;46.52344;938.5069;;;;
2021/04/07 14:04:46;;;;;;;1.2;0.9;;;;;;;3.99;50.16211;938.5453;;;;
2021/04/07 14:07:15;;;;;;;0.5;0.5;;;;;;;3.7;51.0957;938.4855;;;;
2021/04/07 14:09:37;;;;;;;1.1;0.8;;;;;;;3.68;52.68848;938.6468;;;;
2021/04/07 14:12:02;;;;;;;1.5;1.1;;;;;;;3.97;52.80273;938.6464;;;;
2021/04/07 14:14:27;;;;;;;2.5;1.1;;;;;;;4.43;53.98633;938.6415;;;;
2021/04/07 14:16:52;;;;;;;0.9;0.7;;;;;;;4.1;51.18848;938.7072;;;;
2021/04/07 14:19:19;;;;;;;0.8;0.4;;;;;;;3.46;52.63867;938.7484;;;;
2021/04/07 14:21:44;;;;;;;0.8;0.6;;;;;;;3.29;53.82031;938.7583;;;;
2021/04/07 14:24:09;;;;;;;0.4;0.4;;;;;;;3.22;52.47363;938.809;;;;
2021/04/07 14:26:34;;;;;;;0.4;0.4;;;;;;;3.4;53.95605;938.867;;;;
2021/04/07 14:29:00;;;;;;;0.9;0.7;;;;;;;3.66;55.25781;938.8847;;;;
2021/04/07 14:31:25;;;;;;;1.2;0.6;;;;;;;3.61;54.44336;938.8658;;;;
2021/04/07 14:33:52;;;;;;;14.4;0.8;;;;;;;3.72;52.65918;938.8404;;;;